Time;durP1;ratioP1;P1;durP2;ratioP2;P2;SDS_P1;SDS_P2;PMS_P1;PMS_P2;Temp;Humidity;BMP_temperature;BMP_pressure;BME280_temperature;BME280_humidity;BME280_pressure;Samples;Min_cycle;Max_cycle;Signal;HPM_P1;HPM_P2
2022/04/29 00:02:09;;;;;;;;;;;;;;;11.43;60.02;96879.94;6372081;27;20435;-63
2022/04/29 00:05:10;;;;;;;;;;;;;;;11.30;60.49;96868.56;6372349;27;20414;-65
2022/04/29 00:08:11;;;;;;;;;;;;;;;11.22;60.87;96883.06;6372069;27;19924;-64
2022/04/29 00:11:18;;;;;;;;;;;;;;;11.18;60.67;96876.34;6372956;27;19927;-64
2022/04/29 00:14:23;;;;;;;;;;;;;;;11.10;61.00;96873.38;6372052;27;19927;-64
2022/04/29 00:17:27;;;;;;;;;;;;;;;11.06;61.05;96877.16;6372913;27;20340;-64
2022/04/29 00:20:31;;;;;;;;;;;;;;;11.01;60.95;96884.50;6372035;27;19924;-64
2022/04/29 00:23:34;;;;;;;;;;;;;;;10.99;61.22;96883.78;6372014;27;19923;-65
2022/04/29 00:26:38;;;;;;;;;;;;;;;10.90;61.47;96893.13;6372208;27;20370;-64
2022/04/29 00:29:40;;;;;;;;;;;;;;;10.85;61.68;96881.22;6371712;27;19927;-64
2022/04/29 00:32:43;;;;;;;;;;;;;;;10.83;61.55;96880.47;6372488;27;19923;-64
2022/04/29 00:35:44;;;;;;;;;;;;;;;10.79;62.04;96888.56;6371245;27;19923;-64
2022/04/29 00:38:48;;;;;;;;;;;;;;;10.79;61.60;96896.47;6372421;27;19923;-64
2022/04/29 00:41:51;;;;;;;;;;;;;;;10.78;61.37;96894.78;6372157;27;19930;-64
2022/04/29 00:44:52;;;;;;;;;;;;;;;10.76;61.55;96896.66;6371640;27;19923;-64
2022/04/29 00:47:54;;;;;;;;;;;;;;;10.72;62.11;96895.16;6371389;27;19924;-64
2022/04/29 00:50:55;;;;;;;;;;;;;;;10.70;63.31;96901.47;6371244;27;19930;-64
2022/04/29 00:53:56;;;;;;;;;;;;;;;10.67;61.55;96904.28;6371548;27;19926;-63
2022/04/29 00:57:00;;;;;;;;;;;;;;;10.59;61.36;96904.81;6370984;27;19923;-65
2022/04/29 01:00:06;;;;;;;;;;;;;;;10.51;62.19;96902.66;6371237;27;19930;-64
2022/04/29 01:03:10;;;;;;;;;;;;;;;10.51;61.85;96901.81;6371570;27;19919;-65
2022/04/29 01:06:14;;;;;;;;;;;;;;;10.51;62.45;96907.09;6371871;27;20335;-64
2022/04/29 01:09:17;;;;;;;;;;;;;;;10.52;62.14;96914.88;6370516;27;19923;-65
2022/04/29 01:12:18;;;;;;;;;;;;;;;10.53;61.99;96920.97;6370627;27;19923;-65
2022/04/29 01:15:22;;;;;;;;;;;;;;;10.55;62.05;96934.88;6371822;27;19923;-64
2022/04/29 01:18:24;;;;;;;;;;;;;;;10.59;61.26;96930.25;6352858;28;19919;-64
2022/04/29 01:21:30;;;;;;;;;;;;;;;10.62;61.55;96930.94;6371538;28;19923;-64
2022/04/29 01:24:31;;;;;;;;;;;;;;;10.64;60.96;96939.53;6371933;28;19958;-64
2022/04/29 01:27:34;;;;;;;;;;;;;;;10.68;61.24;96933.16;6371489;28;19927;-64
2022/04/29 01:30:36;;;;;;;;;;;;;;;10.72;60.95;96946.97;6370810;28;19976;-63
2022/04/29 01:33:40;;;;;;;;;;;;;;;10.74;60.83;96953.81;6370827;28;19927;-65
2022/04/29 01:36:43;;;;;;;;;;;;;;;10.76;60.52;96954.56;6371428;28;19927;-64
2022/04/29 01:39:45;;;;;;;;;;;;;;;10.80;60.62;96960.47;6370688;28;19926;-64
2022/04/29 01:42:45;;;;;;;;;;;;;;;10.83;60.78;96954.16;6370575;28;20028;-65
2022/04/29 01:45:47;;;;;;;;;;;;;;;10.88;61.06;96963.47;6370801;28;20004;-64
2022/04/29 01:48:51;;;;;;;;;;;;;;;10.95;60.81;96953.38;6370420;28;20411;-65
2022/04/29 01:51:57;;;;;;;;;;;;;;;11.03;60.60;96961.59;6371355;28;19923;-64
2022/04/29 01:54:58;;;;;;;;;;;;;;;11.13;61.01;96959.25;6369784;28;19946;-64
2022/04/29 01:58:01;;;;;;;;;;;;;;;11.24;60.86;96954.94;6371298;28;19923;-64
2022/04/29 02:01:04;;;;;;;;;;;;;;;11.37;59.46;96954.97;6371129;28;19968;-64
2022/04/29 02:04:09;;;;;;;;;;;;;;;11.46;59.59;96969.31;6371072;28;20018;-64
2022/04/29 02:07:15;;;;;;;;;;;;;;;11.54;59.88;96972.28;6371144;28;19923;-65
2022/04/29 02:10:16;;;;;;;;;;;;;;;11.59;60.36;96986.00;6370307;28;19923;-65
2022/04/29 02:13:20;;;;;;;;;;;;;;;11.66;60.80;96982.00;6371066;28;19927;-65
2022/04/29 02:16:23;;;;;;;;;;;;;;;11.76;61.09;96984.03;6370604;28;20372;-64
2022/04/29 02:19:25;;;;;;;;;;;;;;;11.82;60.53;96986.22;6370070;28;19923;-64
2022/04/29 02:22:28;;;;;;;;;;;;;;;11.90;59.55;96989.22;6371612;27;19930;-65
2022/04/29 02:25:35;;;;;;;;;;;;;;;11.98;59.47;96976.38;6357766;27;20293;-64
2022/04/29 02:28:36;;;;;;;;;;;;;;;12.06;59.57;96987.22;6355972;27;19923;-65
2022/04/29 02:31:42;;;;;;;;;;;;;;;12.13;59.20;96985.84;6374949;27;19924;-64
2022/04/29 02:34:43;;;;;;;;;;;;;;;12.29;59.18;96990.06;6374004;27;19923;-65
2022/04/29 02:37:49;;;;;;;;;;;;;;;12.41;59.62;96991.84;6373981;27;19929;-65
2022/04/29 02:40:50;;;;;;;;;;;;;;;12.55;59.36;96994.34;6374154;27;19945;-64
2022/04/29 02:43:54;;;;;;;;;;;;;;;12.68;59.34;97002.25;6374885;27;19959;-65
2022/04/29 02:47:09;;;;;;;;;;;;;;;12.80;59.13;96989.97;6373726;27;20045;-66
2022/04/29 02:50:10;;;;;;;;;;;;;;;12.93;58.85;96998.66;6373883;27;19930;-64
2022/04/29 02:53:11;;;;;;;;;;;;;;;13.04;58.59;97004.00;6373894;27;19923;-64
2022/04/29 02:56:12;;;;;;;;;;;;;;;13.16;58.83;96998.78;6373579;27;19930;-65
2022/04/29 02:59:13;;;;;;;;;;;;;;;13.27;58.51;96998.88;6355682;27;19930;-64
2022/04/29 03:02:15;;;;;;;;;;;;;;;13.37;58.24;96994.63;6373543;27;19923;-64
2022/04/29 03:05:16;;;;;;;;;;;;;;;13.47;58.22;96995.63;6373366;27;19923;-65
2022/04/29 03:08:17;;;;;;;;;;;;;;;13.58;58.58;96996.59;6373358;27;20067;-65
2022/04/29 03:11:21;;;;;;;;;;;;;;;13.60;58.66;97000.81;6373035;27;19924;-65
2022/04/29 03:14:24;;;;;;;;;;;;;;;13.67;58.54;96995.91;6374052;27;19923;-65
2022/04/29 03:20:50;;;;;;;;;;;;;;;13.80;58.64;97007.25;6373136;27;20293;-65
2022/04/29 03:23:51;;;;;;;;;;;;;;;13.87;58.58;97008.50;6373172;27;20315;-64
2022/04/29 03:26:53;;;;;;;;;;;;;;;13.95;58.40;97014.97;6373459;27;20304;-64
2022/04/29 03:29:56;;;;;;;;;;;;;;;14.03;58.23;97016.09;6372509;27;19931;-65
2022/04/29 03:32:59;;;;;;;;;;;;;;;14.23;57.80;97019.00;6373036;27;19923;-64
2022/04/29 03:36:00;;;;;;;;;;;;;;;14.74;57.31;97022.06;6373010;27;19923;-64
2022/04/29 03:39:04;;;;;;;;;;;;;;;15.56;55.58;97015.47;6354366;27;20336;-64
2022/04/29 03:42:07;;;;;;;;;;;;;;;16.24;53.94;97018.63;6373670;27;19923;-64
2022/04/29 03:45:09;;;;;;;;;;;;;;;16.91;52.11;97026.09;6354698;27;20324;-64
2022/04/29 03:48:10;;;;;;;;;;;;;;;17.45;51.14;97030.13;6353836;27;19928;-65
2022/04/29 03:51:13;;;;;;;;;;;;;;;17.83;50.32;97028.47;6372904;27;19924;-65
2022/04/29 03:54:14;;;;;;;;;;;;;;;18.25;49.80;97037.97;6372975;27;19926;-65
2022/04/29 03:57:20;;;;;;;;;;;;;;;18.62;48.75;97035.34;6373306;27;19924;-64
2022/04/29 04:00:25;;;;;;;;;;;;;;;18.67;48.66;97043.75;6373149;27;19919;-65
2022/04/29 04:03:28;;;;;;;;;;;;;;;18.63;48.74;97045.03;6373000;27;19935;-65
2022/04/29 04:09:49;;;;;;;;;;;;;;;17.79;50.46;97036.91;6371641;27;19924;-64
2022/04/29 04:12:50;;;;;;;;;;;;;;;17.45;50.99;97039.94;6372002;27;20357;-65
2022/04/29 04:15:51;;;;;;;;;;;;;;;17.23;50.62;97035.69;6371760;27;20423;-65
2022/04/29 04:18:53;;;;;;;;;;;;;;;16.96;50.77;97045.16;6371373;27;20669;-66
2022/04/29 04:21:56;;;;;;;;;;;;;;;16.85;50.98;97039.94;6372519;27;19923;-65
2022/04/29 04:25:00;;;;;;;;;;;;;;;16.89;50.47;97043.16;6372051;27;19923;-65
2022/04/29 04:28:01;;;;;;;;;;;;;;;17.31;49.72;97037.69;6371122;27;19930;-65
2022/04/29 04:31:02;;;;;;;;;;;;;;;18.05;48.33;97042.50;6371729;27;19968;-64
2022/04/29 04:37:30;;;;;;;;;;;;;;;19.55;45.18;97046.00;6372464;27;19923;-64
2022/04/29 04:40:34;;;;;;;;;;;;;;;19.80;44.92;97047.94;6372235;27;19923;-63
2022/04/29 04:43:37;;;;;;;;;;;;;;;19.99;44.85;97054.13;6371025;27;19923;-65
2022/04/29 04:46:41;;;;;;;;;;;;;;;20.31;43.92;97056.22;6371386;27;19923;-65
2022/04/29 04:49:45;;;;;;;;;;;;;;;20.58;43.30;97050.75;6371962;27;19932;-64
2022/04/29 04:52:49;;;;;;;;;;;;;;;20.96;42.70;97056.63;6372225;27;19923;-64
2022/04/29 04:55:50;;;;;;;;;;;;;;;21.68;41.74;97062.44;6371417;27;20412;-65
2022/04/29 04:58:52;;;;;;;;;;;;;;;21.77;41.20;97055.25;6371472;27;19923;-65
2022/04/29 05:01:56;;;;;;;;;;;;;;;22.60;40.65;97065.00;6371752;27;19923;-65
2022/04/29 05:04:57;;;;;;;;;;;;;;;25.97;35.93;97073.75;6371235;27;19930;-65
2022/04/29 05:07:59;;;;;;;;;;;;;;;28.17;32.66;97078.69;6352906;28;20388;-65
2022/04/29 05:11:00;;;;;;;;;;;;;;;30.36;29.90;97080.03;6369605;27;19927;-65
2022/04/29 05:14:01;;;;;;;;;;;;;;;30.67;26.38;97086.50;6370648;27;19938;-66
2022/04/29 05:17:02;;;;;;;;;;;;;;;30.90;29.52;97087.78;6370505;27;19919;-65
2022/04/29 05:20:04;;;;;;;;;;;;;;;33.06;26.79;97091.63;6370920;28;19924;-65
2022/04/29 05:23:07;;;;;;;;;;;;;;;35.16;26.49;97092.97;6371586;28;19939;-65
2022/04/29 05:26:11;;;;;;;;;;;;;;;36.83;20.51;97088.84;6371483;28;20303;-65
2022/04/29 05:29:12;;;;;;;;;;;;;;;37.91;17.93;97076.59;6370345;28;19930;-66
2022/04/29 05:32:14;;;;;;;;;;;;;;;37.00;23.22;97088.69;6370840;28;19923;-64
2022/04/29 05:35:15;;;;;;;;;;;;;;;35.84;24.60;97087.28;6370492;28;20374;-65
2022/04/29 05:38:16;;;;;;;;;;;;;;;33.58;27.09;97076.44;6351848;28;19924;-65
2022/04/29 05:44:36;;;;;;;;;;;;;;;31.24;28.59;97084.50;6370139;28;19930;-65
2022/04/29 05:47:38;;;;;;;;;;;;;;;30.58;28.70;97072.38;6370010;28;19930;-64
2022/04/29 05:50:42;;;;;;;;;;;;;;;31.02;27.91;97066.97;6370307;28;19923;-65
2022/04/29 05:53:45;;;;;;;;;;;;;;;31.14;27.18;97073.34;6371520;28;19923;-65
2022/04/29 05:56:51;;;;;;;;;;;;;;;33.09;25.42;97074.81;6373407;27;19923;-65
2022/04/29 05:59:58;;;;;;;;;;;;;;;35.93;22.67;97085.75;6376196;27;19925;-64
2022/04/29 06:03:03;;;;;;;;;;;;;;;37.90;18.54;97091.41;6375467;27;19923;-65
2022/04/29 06:06:06;;;;;;;;;;;;;;;40.22;19.22;97093.75;6374011;27;19931;-66
2022/04/29 06:09:13;;;;;;;;;;;;;;;41.45;14.19;97090.81;6375734;27;19932;-65
2022/04/29 06:12:16;;;;;;;;;;;;;;;40.82;18.77;97095.28;6375360;27;19930;-65
2022/04/29 06:15:17;;;;;;;;;;;;;;;37.37;20.46;97077.72;6374198;27;19997;-65
2022/04/29 06:18:21;;;;;;;;;;;;;;;33.95;24.21;97071.44;6375901;27;19924;-65
2022/04/29 06:21:22;;;;;;;;;;;;;;;31.27;26.51;97067.75;6374675;27;20403;-64
2022/04/29 06:24:23;;;;;;;;;;;;;;;29.27;26.37;97056.56;6374869;27;19923;-66
2022/04/29 06:27:26;;;;;;;;;;;;;;;27.71;29.96;97056.88;6375426;27;20273;-65
2022/04/29 06:30:32;;;;;;;;;;;;;;;27.44;29.31;97051.41;6375271;27;19927;-65
2022/04/29 06:33:33;;;;;;;;;;;;;;;28.15;27.06;97048.28;6374272;27;20405;-64
2022/04/29 06:36:34;;;;;;;;;;;;;;;27.77;26.77;97051.53;6374453;27;20006;-64
2022/04/29 06:39:37;;;;;;;;;;;;;;;28.20;26.22;97048.50;6374354;27;20007;-64
2022/04/29 06:42:45;;;;;;;;;;;;;;;27.90;25.60;97049.91;6373858;27;19930;-64
2022/04/29 06:45:51;;;;;;;;;;;;;;;27.39;26.18;97042.22;6375053;27;19923;-65
2022/04/29 06:48:55;;;;;;;;;;;;;;;27.94;25.70;97051.16;6373805;27;20307;-65
2022/04/29 06:51:56;;;;;;;;;;;;;;;30.06;23.41;97052.66;6373618;27;19923;-65
2022/04/29 06:54:58;;;;;;;;;;;;;;;32.42;21.01;97060.63;6374178;27;19923;-64
2022/04/29 06:58:01;;;;;;;;;;;;;;;34.43;19.85;97062.78;6374598;27;20423;-66
2022/04/29 07:01:07;;;;;;;;;;;;;;;35.27;19.40;97061.94;6374489;27;19923;-65
2022/04/29 07:04:08;;;;;;;;;;;;;;;35.36;19.24;97064.22;6355523;27;20249;-65
2022/04/29 07:07:15;;;;;;;;;;;;;;;33.57;20.71;97058.38;6374213;27;20300;-64
2022/04/29 07:10:17;;;;;;;;;;;;;;;31.47;22.68;97051.22;6372877;27;19923;-65
2022/04/29 07:13:20;;;;;;;;;;;;;;;29.54;24.26;97033.72;6373519;27;20421;-65
2022/04/29 07:16:23;;;;;;;;;;;;;;;28.13;25.34;97036.84;6373182;27;19927;-65
2022/04/29 07:19:26;;;;;;;;;;;;;;;27.33;26.56;97040.34;6373399;27;19923;-65
2022/04/29 07:22:30;;;;;;;;;;;;;;;27.04;26.38;97036.84;6374204;27;20368;-65
2022/04/29 07:25:34;;;;;;;;;;;;;;;28.89;24.82;97035.59;6374214;27;19923;-65
2022/04/29 07:28:35;;;;;;;;;;;;;;;31.60;21.78;97035.81;6373250;27;19930;-64
2022/04/29 07:31:38;;;;;;;;;;;;;;;31.37;22.16;97034.63;6373941;27;19923;-64
2022/04/29 07:44:47;;;;;;;;;;;;;;;28.58;25.20;97028.97;6372509;27;19946;-65
2022/04/29 07:47:52;;;;;;;;;;;;;;;30.48;23.41;97035.91;6372900;27;19923;-65
2022/04/29 07:50:53;;;;;;;;;;;;;;;32.80;21.15;97037.56;6372337;27;19927;-64
2022/04/29 07:53:55;;;;;;;;;;;;;;;33.65;19.78;97039.72;6372081;27;19931;-65
2022/04/29 07:57:02;;;;;;;;;;;;;;;32.62;21.23;97042.06;6373312;27;20296;-65
2022/04/29 08:00:04;;;;;;;;;;;;;;;33.05;21.00;97040.09;6372080;27;19938;-64
2022/04/29 08:03:05;;;;;;;;;;;;;;;34.02;20.03;97033.06;6354018;27;20014;-65
2022/04/29 08:06:09;;;;;;;;;;;;;;;36.44;18.10;97042.47;6371658;27;19923;-66
2022/04/29 08:09:10;;;;;;;;;;;;;;;40.77;15.29;97044.84;6372044;27;19923;-64
2022/04/29 08:12:13;;;;;;;;;;;;;;;43.72;12.95;97047.16;6372601;27;20407;-68
2022/04/29 08:15:18;;;;;;;;;;;;;;;45.69;12.68;97046.47;6372829;27;19923;-65
2022/04/29 08:18:19;;;;;;;;;;;;;;;46.26;11.74;97045.59;6372330;27;19966;-64
2022/04/29 08:21:22;;;;;;;;;;;;;;;45.96;11.58;97043.75;6370670;27;19934;-65
2022/04/29 08:24:23;;;;;;;;;;;;;;;46.29;10.61;97036.63;6372562;27;19926;-64
2022/04/29 08:27:28;;;;;;;;;;;;;;;46.71;10.65;97028.56;6371762;27;20015;-65
2022/04/29 08:30:31;;;;;;;;;;;;;;;44.92;11.72;97019.94;6372374;27;20065;-65
2022/04/29 08:33:35;;;;;;;;;;;;;;;41.17;14.14;97002.22;6371638;27;20341;-64
2022/04/29 08:36:36;;;;;;;;;;;;;;;38.76;15.83;97000.03;6371718;27;20339;-65
2022/04/29 08:39:37;;;;;;;;;;;;;;;37.35;16.78;96989.34;6371039;27;19923;-64
2022/04/29 08:42:41;;;;;;;;;;;;;;;37.46;16.62;96982.78;6371680;27;20517;-65
2022/04/29 08:45:43;;;;;;;;;;;;;;;38.21;14.92;96985.19;6353224;27;20250;-64
2022/04/29 08:48:49;;;;;;;;;;;;;;;36.96;15.72;96970.47;6372157;27;19923;-65
2022/04/29 08:51:52;;;;;;;;;;;;;;;36.10;16.29;96959.72;6371505;27;19934;-65
2022/04/29 09:01:40;;;;;;;;;;;;;;;43.02;11.49;96972.66;6370974;27;20311;-65
2022/04/29 09:04:41;;;;;;;;;;;;;;;45.01;9.71;96981.97;6370884;27;19931;-65
2022/04/29 09:07:52;;;;;;;;;;;;;;;45.70;9.87;96975.00;6371275;27;19930;-66
2022/04/29 09:10:58;;;;;;;;;;;;;;;45.66;9.88;96971.22;6371288;27;20005;-64
2022/04/29 09:14:17;;;;;;;;;;;;;;;44.64;9.70;96974.88;6371066;27;19931;-65
2022/04/29 09:17:28;;;;;;;;;;;;;;;44.01;10.68;96968.38;6370658;27;19920;-65
2022/04/29 09:20:29;;;;;;;;;;;;;;;44.27;10.44;96951.09;6370839;28;20277;-65
2022/04/29 09:23:35;;;;;;;;;;;;;;;44.76;10.24;96957.66;6371390;28;19923;-65
2022/04/29 09:26:38;;;;;;;;;;;;;;;44.71;9.70;96955.00;6370785;28;19930;-65
2022/04/29 09:29:41;;;;;;;;;;;;;;;44.79;9.94;96948.72;6352107;28;19927;-65
2022/04/29 09:32:48;;;;;;;;;;;;;;;45.08;9.78;96950.13;6374719;27;20327;-66
2022/04/29 09:35:50;;;;;;;;;;;;;;;45.06;9.78;96949.63;6376083;27;19927;-66
2022/04/29 09:42:16;;;;;;;;;;;;;;;43.96;10.15;96937.19;6375412;27;20080;-64
2022/04/29 09:45:22;;;;;;;;;;;;;;;44.41;9.60;96940.78;6376529;27;19923;-66
2022/04/29 09:48:25;;;;;;;;;;;;;;;44.84;9.50;96931.88;6375233;27;20502;-65
2022/04/29 09:51:44;;;;;;;;;;;;;;;45.44;9.52;96928.53;6374855;27;19924;-65
2022/04/29 09:54:47;;;;;;;;;;;;;;;45.28;9.31;96919.00;6376015;27;19923;-65
2022/04/29 09:57:52;;;;;;;;;;;;;;;44.23;9.56;96909.31;6375125;27;19923;-65
2022/04/29 10:00:53;;;;;;;;;;;;;;;44.72;9.50;96906.66;6375605;27;19930;-65
2022/04/29 10:03:58;;;;;;;;;;;;;;;44.75;9.43;96906.06;6375906;27;19923;-65
2022/04/29 10:07:03;;;;;;;;;;;;;;;44.36;9.49;96907.63;6375331;27;19923;-66
2022/04/29 10:10:04;;;;;;;;;;;;;;;45.08;9.35;96897.38;6375579;27;19923;-65
2022/04/29 10:13:07;;;;;;;;;;;;;;;44.52;9.17;96897.75;6374510;27;19924;-65
2022/04/29 10:16:11;;;;;;;;;;;;;;;44.02;9.97;96892.38;6375732;27;19923;-66
2022/04/29 10:22:37;;;;;;;;;;;;;;;44.46;9.50;96887.94;6375406;27;19923;-65
2022/04/29 10:25:39;;;;;;;;;;;;;;;44.27;9.68;96873.44;6356259;27;19934;-65
2022/04/29 10:28:43;;;;;;;;;;;;;;;43.88;9.56;96866.63;6375483;27;20384;-64
2022/04/29 10:32:06;;;;;;;;;;;;;;;41.46;10.93;96858.53;6375385;27;19930;-65
2022/04/29 10:35:26;;;;;;;;;;;;;;;39.86;12.07;96856.97;6373863;27;20501;-64
2022/04/29 10:38:34;;;;;;;;;;;;;;;38.62;12.96;96855.97;6374993;27;20384;-66
2022/04/29 10:41:35;;;;;;;;;;;;;;;38.86;12.89;96850.69;6355998;27;19923;-65
2022/04/29 10:44:55;;;;;;;;;;;;;;;40.31;11.85;96838.41;6355829;27;20022;-67
2022/04/29 10:47:56;;;;;;;;;;;;;;;41.24;11.01;96852.78;6374839;27;19924;-65
2022/04/29 10:51:08;;;;;;;;;;;;;;;40.90;11.32;96842.72;6356041;27;20345;-65
2022/04/29 10:54:11;;;;;;;;;;;;;;;39.89;12.15;96831.59;6374465;27;19970;-64
2022/04/29 10:57:14;;;;;;;;;;;;;;;37.86;13.25;96826.66;6373370;27;20021;-65
2022/04/29 11:00:23;;;;;;;;;;;;;;;35.31;15.32;96816.88;6374110;27;20021;-66
2022/04/29 11:03:38;;;;;;;;;;;;;;;33.46;16.65;96806.34;6373306;27;19938;-65
2022/04/29 11:06:41;;;;;;;;;;;;;;;31.48;18.49;96796.44;6373392;27;19923;-65
2022/04/29 11:09:45;;;;;;;;;;;;;;;31.33;18.47;96794.13;6373714;27;19923;-66
2022/04/29 11:12:56;;;;;;;;;;;;;;;31.13;18.91;96791.72;6373519;27;19960;-66
2022/04/29 11:16:07;;;;;;;;;;;;;;;29.87;20.06;96793.22;6373526;27;19930;-65
2022/04/29 11:19:20;;;;;;;;;;;;;;;29.61;20.38;96794.25;6373192;27;19924;-65
2022/04/29 11:25:56;;;;;;;;;;;;;;;31.53;19.01;96788.41;6373939;27;20327;-65
2022/04/29 11:28:58;;;;;;;;;;;;;;;32.79;17.69;96793.41;6373044;27;19919;-66
2022/04/29 11:32:04;;;;;;;;;;;;;;;33.84;16.81;96797.47;6373703;27;20404;-65
2022/04/29 11:35:05;;;;;;;;;;;;;;;34.27;16.45;96790.47;6373081;27;19926;-65
2022/04/29 11:38:09;;;;;;;;;;;;;;;33.54;16.75;96793.16;6373115;27;20399;-67
2022/04/29 11:41:17;;;;;;;;;;;;;;;31.59;18.97;96781.19;6373806;27;19923;-66
2022/04/29 11:44:38;;;;;;;;;;;;;;;30.20;20.17;96773.88;6373409;27;20357;-65
2022/04/29 11:47:40;;;;;;;;;;;;;;;30.96;19.37;96760.84;6372553;27;19965;-65
2022/04/29 11:50:43;;;;;;;;;;;;;;;32.11;18.59;96756.84;6373165;27;20512;-67
2022/04/29 11:53:57;;;;;;;;;;;;;;;33.01;17.98;96758.97;6355102;27;20392;-65
2022/04/29 11:57:01;;;;;;;;;;;;;;;32.84;18.00;96755.34;6354252;27;19923;-65
2022/04/29 12:00:03;;;;;;;;;;;;;;;32.59;18.28;96750.25;6372764;27;20411;-66
2022/04/29 12:03:05;;;;;;;;;;;;;;;32.55;18.05;96747.16;6373193;27;19930;-65
2022/04/29 12:06:06;;;;;;;;;;;;;;;31.41;18.83;96744.06;6372174;27;19976;-67
2022/04/29 12:09:08;;;;;;;;;;;;;;;30.27;20.10;96730.41;6372607;27;20300;-65
2022/04/29 12:12:32;;;;;;;;;;;;;;;29.34;20.98;96732.16;6372576;27;19927;-65
2022/04/29 12:15:35;;;;;;;;;;;;;;;28.24;21.76;96728.84;6372405;27;20400;-66
2022/04/29 12:18:42;;;;;;;;;;;;;;;27.25;22.63;96726.09;6372641;27;20380;-67
2022/04/29 12:21:56;;;;;;;;;;;;;;;26.61;22.89;96726.63;6371734;27;19923;-64
2022/04/29 12:24:57;;;;;;;;;;;;;;;26.23;24.01;96724.41;6371259;27;19943;-65
2022/04/29 12:28:21;;;;;;;;;;;;;;;25.48;24.17;96729.59;6354038;27;19923;-65
2022/04/29 12:34:51;;;;;;;;;;;;;;;25.59;23.98;96722.81;6370938;27;19923;-64
2022/04/29 12:37:55;;;;;;;;;;;;;;;26.56;23.23;96712.94;6370509;27;19923;-65
2022/04/29 12:41:12;;;;;;;;;;;;;;;27.37;23.25;96715.50;6370762;27;19923;-65
2022/04/29 12:45:03;;;;;;;;;;;;;;;27.98;22.00;96711.66;6371004;27;20022;-65
2022/04/29 12:47:38;;;;;;;;;;;;;;;28.36;22.07;96727.94;6371167;27;19923;-65
2022/04/29 12:50:44;;;;;;;;;;;;;;;28.62;22.19;96718.88;6371868;27;19999;-65
2022/04/29 12:53:45;;;;;;;;;;;;;;;29.08;21.35;96725.88;6370854;27;19919;-65
2022/04/29 12:56:51;;;;;;;;;;;;;;;29.49;21.04;96729.91;6371424;27;19923;-66
2022/04/29 12:59:52;;;;;;;;;;;;;;;29.51;21.13;96716.97;6352710;27;19946;-65
2022/04/29 13:03:00;;;;;;;;;;;;;;;29.30;21.33;96714.69;6370772;27;19923;-65
2022/04/29 13:06:04;;;;;;;;;;;;;;;28.92;21.65;96718.25;6370158;27;19931;-66
2022/04/29 13:09:07;;;;;;;;;;;;;;;28.35;22.09;96709.22;6371400;27;19923;-65
2022/04/29 13:12:08;;;;;;;;;;;;;;;27.82;22.59;96707.53;6371029;27;19923;-65
2022/04/29 13:15:13;;;;;;;;;;;;;;;27.43;23.04;96705.72;6370394;27;19923;-65
2022/04/29 13:18:19;;;;;;;;;;;;;;;27.13;23.29;96703.44;6371088;27;19923;-65
2022/04/29 13:21:26;;;;;;;;;;;;;;;26.80;23.47;96708.81;6371038;28;19923;-65
2022/04/29 13:24:32;;;;;;;;;;;;;;;26.57;23.40;96693.81;6371361;28;20396;-65
2022/04/29 13:27:34;;;;;;;;;;;;;;;26.32;23.96;96701.59;6352728;28;19963;-64
2022/04/29 13:30:39;;;;;;;;;;;;;;;26.08;24.38;96711.09;6371103;28;20014;-66
2022/04/29 13:33:42;;;;;;;;;;;;;;;25.75;24.54;96708.19;6370877;28;19923;-65
2022/04/29 13:36:45;;;;;;;;;;;;;;;25.45;25.42;96696.81;6369999;28;19963;-65
2022/04/29 13:39:47;;;;;;;;;;;;;;;25.25;25.11;96707.44;6370924;28;19931;-66
2022/04/29 13:42:49;;;;;;;;;;;;;;;25.07;25.87;96705.22;6370377;28;19929;-64
2022/04/29 13:45:50;;;;;;;;;;;;;;;24.79;25.98;96715.94;6370168;28;19926;-65
2022/04/29 13:48:53;;;;;;;;;;;;;;;24.58;26.80;96709.53;6369875;28;19923;-66
2022/04/29 13:51:56;;;;;;;;;;;;;;;24.57;27.58;96710.56;6370263;28;20007;-67
2022/04/29 13:55:03;;;;;;;;;;;;;;;24.33;27.41;96705.50;6370784;28;19963;-64
2022/04/29 13:58:05;;;;;;;;;;;;;;;24.26;27.59;96701.91;6370169;28;19919;-66
2022/04/29 14:01:09;;;;;;;;;;;;;;;24.08;27.57;96719.28;6369800;28;19930;-65
2022/04/29 14:04:10;;;;;;;;;;;;;;;23.99;27.88;96715.03;6369531;28;19934;-67
2022/04/29 14:07:13;;;;;;;;;;;;;;;23.91;27.83;96723.19;6370048;28;20388;-65
2022/04/29 14:10:19;;;;;;;;;;;;;;;23.80;28.25;96716.44;6370598;28;20372;-65
2022/04/29 14:13:20;;;;;;;;;;;;;;;23.58;28.26;96707.44;6369917;28;20392;-65
2022/04/29 14:16:23;;;;;;;;;;;;;;;23.45;28.77;96718.00;6370199;28;19927;-65
2022/04/29 14:19:26;;;;;;;;;;;;;;;23.25;28.84;96723.06;6373661;27;19924;-66
2022/04/29 14:22:27;;;;;;;;;;;;;;;23.08;29.20;96727.75;6374592;27;19961;-65
2022/04/29 14:25:28;;;;;;;;;;;;;;;22.99;29.33;96723.47;6374933;27;19955;-66
2022/04/29 14:28:34;;;;;;;;;;;;;;;22.97;29.88;96730.84;6375553;27;19923;-65
2022/04/29 14:31:38;;;;;;;;;;;;;;;22.88;30.23;96742.66;6375502;27;19920;-66
2022/04/29 14:34:39;;;;;;;;;;;;;;;22.61;30.48;96742.16;6374378;27;19930;-66
2022/04/29 14:37:41;;;;;;;;;;;;;;;22.31;30.74;96751.91;6375305;27;19930;-68
2022/04/29 14:40:45;;;;;;;;;;;;;;;22.07;31.02;96760.84;6355733;27;19923;-66
2022/04/29 14:43:48;;;;;;;;;;;;;;;21.90;31.19;96768.13;6374950;27;19923;-65
2022/04/29 14:46:50;;;;;;;;;;;;;;;21.72;31.89;96763.00;6374370;27;19923;-66
2022/04/29 14:49:53;;;;;;;;;;;;;;;21.52;32.30;96771.41;6373985;27;20400;-64
2022/04/29 14:52:56;;;;;;;;;;;;;;;21.23;32.79;96773.75;6374232;27;20022;-65
2022/04/29 14:55:57;;;;;;;;;;;;;;;20.87;33.07;96783.97;6374409;27;19923;-65
2022/04/29 14:59:00;;;;;;;;;;;;;;;20.55;33.65;96783.75;6355652;27;19929;-68
2022/04/29 15:02:01;;;;;;;;;;;;;;;20.08;33.72;96794.09;6374943;27;19923;-67
2022/04/29 15:05:05;;;;;;;;;;;;;;;19.69;33.95;96798.06;6374634;27;19927;-66
2022/04/29 15:08:09;;;;;;;;;;;;;;;19.26;34.60;96805.09;6373313;27;19930;-66
2022/04/29 15:17:50;;;;;;;;;;;;;;;18.31;36.02;96825.13;6354984;27;19923;-65
2022/04/29 15:20:52;;;;;;;;;;;;;;;17.89;36.26;96830.97;6354613;27;19923;-64
2022/04/29 15:23:53;;;;;;;;;;;;;;;17.79;37.00;96839.97;6373261;27;19946;-67
2022/04/29 15:26:55;;;;;;;;;;;;;;;17.67;37.31;96837.44;6372664;27;19926;-65
2022/04/29 15:29:57;;;;;;;;;;;;;;;17.47;37.69;96841.13;6373708;27;20284;-66
2022/04/29 15:32:58;;;;;;;;;;;;;;;17.32;37.76;96854.00;6373163;27;20238;-66
2022/04/29 15:36:07;;;;;;;;;;;;;;;17.13;38.32;96865.53;6373909;27;19977;-65
2022/04/29 15:39:08;;;;;;;;;;;;;;;17.04;38.31;96861.88;6373860;27;19923;-65
2022/04/29 15:42:10;;;;;;;;;;;;;;;17.01;38.32;96869.28;6373898;27;19946;-65
2022/04/29 15:45:14;;;;;;;;;;;;;;;17.15;38.53;96878.66;6373529;27;19926;-64
2022/04/29 15:48:18;;;;;;;;;;;;;;;17.14;38.44;96888.47;6354701;27;19923;-65
2022/04/29 15:51:19;;;;;;;;;;;;;;;16.88;37.83;96888.19;6372781;27;19924;-65
2022/04/29 15:54:20;;;;;;;;;;;;;;;16.62;36.92;96909.09;6373024;27;20016;-65
2022/04/29 15:57:22;;;;;;;;;;;;;;;16.32;35.23;96913.44;6372490;27;19930;-65
2022/04/29 16:00:23;;;;;;;;;;;;;;;15.95;35.00;96915.81;6371914;27;19924;-64
2022/04/29 16:03:27;;;;;;;;;;;;;;;15.56;35.04;96920.84;6372483;27;19924;-64
2022/04/29 16:06:28;;;;;;;;;;;;;;;15.18;35.33;96926.69;6372157;27;19923;-64
2022/04/29 16:09:29;;;;;;;;;;;;;;;14.84;35.74;96929.47;6372230;27;19923;-64
2022/04/29 16:12:31;;;;;;;;;;;;;;;14.62;35.50;96935.63;6372770;27;19938;-65
2022/04/29 16:15:35;;;;;;;;;;;;;;;14.51;35.70;96951.50;6372925;27;19924;-65
2022/04/29 16:22:05;;;;;;;;;;;;;;;14.21;35.88;96947.69;6372422;27;20396;-64
2022/04/29 16:28:28;;;;;;;;;;;;;;;13.80;36.10;96962.28;6372351;27;19927;-65
2022/04/29 16:31:29;;;;;;;;;;;;;;;13.70;36.23;96969.22;6371152;27;19923;-64
2022/04/29 16:34:30;;;;;;;;;;;;;;;13.78;36.04;96977.44;6372561;27;19924;-64
2022/04/29 16:37:34;;;;;;;;;;;;;;;13.74;35.69;96981.28;6372469;27;19923;-64
2022/04/29 16:40:35;;;;;;;;;;;;;;;13.65;35.36;96982.81;6370354;27;19923;-65
2022/04/29 16:43:37;;;;;;;;;;;;;;;13.61;35.30;96999.00;6371086;27;19923;-64
2022/04/29 16:46:43;;;;;;;;;;;;;;;13.44;35.53;97006.41;6371964;27;20026;-65
2022/04/29 16:49:44;;;;;;;;;;;;;;;13.47;35.12;97010.63;6371188;27;19930;-64
2022/04/29 16:52:46;;;;;;;;;;;;;;;13.55;35.13;97018.00;6371098;27;19930;-64
2022/04/29 16:55:49;;;;;;;;;;;;;;;13.66;34.65;97023.31;6372085;27;20056;-65